Pagrindinis puslapis
METAR-TAF:

METAR-TAF

Oro uostai :

Sibu, Malaizija

platuma: 02-20N, ilguma: 111-50E, Aukštis: 8 m

Dabartinis oras

Ataskaita buvo paskelbta 1 valandą ir 9 minutes, ne 04:00 UTC
Vėjas 4 kt iš Vakarų/Šiaurės Vakarų, svyruoja nuo Pietvakarių ir Šiaurės
Temperatūra 31°C
Drėgmė 66%
Slėgis 1010 hPa
Matomumas 10 km arba daugiau
Išsisklaidę debesys ne aukštis 1800 ft
Su prošvaistėmis ne aukštis 30000 ft

METAR: WBGS 210400Z 30004KT 230V350 9999 SCT018 BKN300 31/24 Q1010

Laikas: 13:09 (05:09 UTC)

Prognozė

Ataskaita buvo paskelbta 6 valandos ir 9 minutes, ne 23:00 UTC
Prognozė galioja nuo 21 metu 00 UTC su 22 metu 00 UTC
Vėjas 2 kt nuo kintamojo kryptimis
Matomumas: 3000 m
Išsisklaidę debesys ne aukštis 1800 ft
migla
Laikinai
nuo 21 metu 00 UTC su 21 metu 04 UTC
Matomumas: 3000 m
Mažai debesys ne aukštis 1500 ft, Liūtiniai kamuoliniai debesys.
perkūnija, lietus

TAF: WBGS 202300Z 2100/2200 VRB02KT 3000 HZ SCT018 TEMPO 2100/2104 3000 TSRA FEW015CB

Orai ataskaitas ir orų prognozės (METAR, TAF).

turimą stotys yra geltonos ir raudonos taškus žemėlapyje.

Perkelti pele per norėdami pamatyti stoties vardą.

Tada spustelėkite, norėdami matyti oro stebėjimo ir prognozės.

Norėdami pakeisti žemėlapį: spustelėkite ant žalios mygtukų su juodo kryžiaus žemyn,; žalią mygtuką su brūkšneliu, jei norite nutolinti; arba žalių rodyklių gretimoms žemėlapius.


METAR-TAF: